Detall de PIREP

Printer-friendly versionPDF version

[2008/12/27 00:20:00]
Flight IATA:CT1004
Pilot Number:026
Company ICAO:CAT
Aircraft Type:B752/E
PAX:180
Departing Airport: LFSB
Destination Airport: LEBL
Alternate Airport:LEPA
Online: VATSIM
Route:LUMEL G434 MOROK UN852 MAMES UN975 BISBA
Flight Level:FL350
No Slew and time accel
No pause
Crash detect
Detect pilot in Cockpit between each 30 and 45 minutes
00:20 Zero fuel Weight: 183022 Lbs, Fuel Weight: 21097 Lbs
00:20 VATSIM:LFSB 270000Z 29003KT CAVOK M04/M05 Q1029 NOSIG
00:20 VATSIM:LEBL 270000Z 09027KT 4000 -RA SCT012 BKN025 10/08 Q1014 NOSIG
00:21 VOICE CATALONIAN / X-MAS CHARTER
00:27 Parking Brakes off
00:40 Take-off
00:40 Take off Weight: 202521 Lbs
00:40 Wind: 319º @ 005 Knots Heading: 154º
00:40 POS N47º 36´ 06´´ E007º 31´ 16´´
00:40 Flaps:2 at 191 Knots
00:40 Gear Up: 200 Knots
00:40 Flaps:1 at 176 Knots
00:40 Flaps:0 at 183 Knots
00:53 TOC
00:53 Fue
l Weight: 15092 Lb
00:55 Wind:038º@036 Knots Heading: 181º Ground Speed: 477 Knots Altitude 35469 ft
01:10 Wind:359º@017 Knots Heading: 192º Ground Speed: 460 Knots Altitude 37309 ft
01:25 Wind:031º@037 Knots Heading: 214º Ground Speed: 487 Knots Altitude 37230 ft
01:27 TOD
01:27 Fuel Weight: 10876 Lb
01:40 Wind:050º@028 Knots Heading: 243º Ground Speed: 392 Knots Altitude 9970 ft
01:55 Wind:079º@025 Knots Heading: 082º Ground Speed: 163 Knots Altitude 2844 ft
01:56 Gear Down: 197 Knots
01:56 Flaps:1 at 198 Knots
01:56 Flaps:2 at 198 Knots
01:57 Flaps:3 at 185 Knots
01:57 Flaps:4 at 183 Knots
01:57 Flaps:5 at 169 Knots
01:57 Flaps:6 at 164 Knots
01:58 TouchDown:Rate -282 ft/min Speed: 151 Knots
01:58 VATSIM:LEBL 270100Z 06021G31KT 6000 RA SCT012 BKN025 10/08 Q1014 NOSIG
01:58 Land
01:58 Wind:044º@016 Knots
01:58 Heading: 066º
01:58 Flight Duration: 01:18
0
1:58 Landing Weight: 191631 Lbs
01:58 POS N41º 18´ 21´´ E002º 06´ 13´´
02:02 Parking brakes on
02:02 Block to Block Duration: 01:35
02:02 Final Fuel: 8203 Lbls
02:02 Spent Fuel: 12894 Lbls
02:02 Flight Length: 515 NM
02:02 TOD Land Length: 165 NM

Exportar CSV

Powered by Drupal - Modified by Danger4k